Details From KICT - Wichita Mid Continent
To KBGD - Hutchinson Co
Flight Number -
Tags Decoded
Created
Modified
Stats Distance 233 nm / 432 km
Max Altitude 0 ft / 0 m
Waypoints 6
Social Downloads 1
Likes 0
Share VATSIM

Download

Looking for another format? Having issues loading an existing format? Contact us
Advertisement - Login to hide

Notes

Decoded

Route

KICT CUTIK JISAM IBIGE TUKKO KBGD

ID Type Via Altitude Latitude Longitude Leg Dist Tot Dist Heading (true) Name
O KICT APT - 0 ft / 0 m 37.65754˚ -97.44007˚ - 0 nm - -
CUTIK FIX - 0 ft / 0 m 37.46156˚ -97.52514˚ 12 nm 12 nm 199° / 199° -
JISAM FIX - 0 ft / 0 m 35.89322˚ -101.40014˚ 209 nm 221 nm 244° / 242° -
IBIGE FIX - 0 ft / 0 m 35.78983˚ -101.39653˚ 6 nm 227 nm 178° / 178° -
TUKKO FIX - 0 ft / 0 m 35.74339˚ -101.39489˚ 2 nm 230 nm 178° / 178° -
O KBGD APT - 0 ft / 0 m 35.69602˚ -101.39824˚ 2 nm 233 nm 183° / 183° -

Altitude Profile

Advertisement - Login to hide

Weather


0- 5 10 15 20 25 30 35+ Temperature / ° C

Clouds and Precipitation
Forecast for 2017-12-15 12:00 UTC. Updated an hour ago

Ground ~20,000 ft ~40,000 ft Winds

KICT

Details ICAO KICT (ICT)
Name Wichita Mid Continent
Region United States
Timezone America/Chicago (UTC-6.0)
Stats Elevation 1,333 ft / 406 m (AMSL)
Location 37.650182° -97.432173°
Runways 3
Magnetic Variation 3.662° E

METAR

KICT 150953Z 31008KT 10SM FEW065 01/M02 A3022 RMK AO2 SLP239 T00061017

Decode

TAF

KICT 150522Z 1506/1606 33010KT P6SM SCT025 SCT035 BKN060 FM150800 32008KT P6SM FEW060 FM151500 27006KT P6SM FEW250 FM151800 23014KT P6SM FEW250 FM160000 20007KT P6SM SKC

Decode

Departure Runways

ID Width Length Bearing (true) Bearing (mag) Surface Threshold Offset Overrun Length
01L 151 ft / 46 m 10,317 ft / 3,145 m 19.92° 16.26° Concrete 0 ft / 0 m 200 ft / 61 m
01R 151 ft / 46 m 7,313 ft / 2,229 m 19.93° 16.27° Concrete 0 ft / 0 m 200 ft / 61 m
14 151 ft / 46 m 6,307 ft / 1,922 m 150.10° 146.44° Concrete 0 ft / 0 m 0 ft / 0 m
19L 151 ft / 46 m 7,313 ft / 2,229 m 199.94° 196.28° Concrete 0 ft / 0 m 200 ft / 61 m
19R 151 ft / 46 m 10,317 ft / 3,145 m 199.92° 196.26° Concrete 0 ft / 0 m 200 ft / 61 m
32 151 ft / 46 m 6,307 ft / 1,922 m 330.10° 326.44° Concrete 0 ft / 0 m 0 ft / 0 m

KBGD

Details ICAO KBGD
Name HUTCHINSON CO
Region United States
Timezone America/Chicago (UTC-6.0)
Stats Elevation 3,055 ft / 931 m (AMSL)
Location 35.700749° -101.393734°
Runways 2
Magnetic Variation 6.016° E

METAR

KBGD 150951Z AUTO 27004KT 10SM CLR M03/M06 A3030 RMK AO2 SLP269 T10281056

Decode

TAF

Not found

Destination Runways

ID Width Length Bearing (true) Bearing (mag) Surface Threshold Offset Overrun Length
03 50 ft / 15 m 3,899 ft / 1,188 m 39.73° 33.71° Asphalt 0 ft / 0 m 0 ft / 0 m
17 100 ft / 30 m 6,313 ft / 1,924 m 178.38° 172.36° Asphalt 0 ft / 0 m 0 ft / 0 m
21 50 ft / 15 m 3,899 ft / 1,188 m 219.74° 213.72° Asphalt 0 ft / 0 m 0 ft / 0 m
35 100 ft / 30 m 6,313 ft / 1,924 m 358.38° 352.36° Asphalt 0 ft / 0 m 0 ft / 0 m